Mexico, IN (46958)

9:36 AM EDT on October 24, 2014 (GMT -0400)
Windsor Forest | Change Station
CLOSE
Current Station
Personal Weather Station
Location: Logansport, IN
Elevation: 669 ft
Nearby Weather Stations

Elev 669 ft 40.76 °N, 86.30 °W | Updated 1 second ago

Overcast
Overcast
48.8 °F
Feels Like 49 °F
N
0.0
Wind Variable Wind from SW
Gusts 0.0 mph

Today
High -- | Low -- °F
--% Chance of Precip.
Yesterday
High -- | Low -- °F
Precip. -- in
8:05 AM 6:50 PM
New Moon, 0% visible
Pressure 30.09 in
Visibility 7.0 miles
Clouds Overcast 4100 ft
Windchill 49 °F
Dew Point 49 °F
Humidity 100%
Rainfall 0.09 in
Snow Depth Not available.
UV 0 out of 12
Pollen 1.10 out of 12
Air Quality Not available.
Flu Activity Sporadic
SPECI KGUS 241322Z 23005KT 7SM OVC041 09/09 A3009

More Conditions Fewer Conditions

Pressure 30.09 in
Visibility 7.0 miles
Clouds Overcast 4100 ft
Windchill 49 °F
Dew Point 49 °F
Humidity 100%
Rainfall 0.09 in
Snow Depth Not available.
UV 0 out of 12
Pollen 1.10 out of 12
Air Quality Not available.
Flu Activity Sporadic
SPECI KGUS 241322Z 23005KT 7SM OVC041 09/09 A3009

More Conditions Fewer Conditions

10-Day Weather Forecast

Almanac

Astronomy

Oct. 24, 2014 Rise Set
Actual Time 8:05 AM EDT 6:50 PM EDT
Civil Twilight 7:37 AM EDT 7:18 PM EDT
Nautical Twilight 7:05 AM EDT 7:50 PM EDT
Astronomical Twilight 6:33 AM EDT 8:22 PM EDT
Moon 8:44 AM EDT 7:30 PM EDT
Length of Visible Light 11h 41m
Length of Day
10h 45m
Tomorrow will be 2m 31s shorter.
New Moon, 0% of the Moon is Illuminated
Today
New Moon
Oct 30
First Quarter
Nov 6
Full
Nov 14
Last Quarter
Nov 22
New

Today's Extremes

State Highs State Lows

Community

WunderPhotos

Upload Photos

1,764,550 photos uploaded!

WunderBlogs® & News

Nearby

Snow Depth

Station Depth Elevation
No new snow has been reported.

Earthquake Activity

City Distance Mag. Time & Date
No recent earthquake activity has been reported nearby.
Minimum magnitude displayed is 2.5.

Coastal Water Temperatures

Place Temperature
No Stations Reporting

Nearby Weather Stations